Terminal Aerodrome Forecast
Issued by NWS

Current Version | Previous Version | Graphics & Text | Print | Product List | Glossary On
Versions: 1 2 3 4 5 6 7 8 9 10 11 12 13 14 15 16 17 18 19 20
619
FTUS41 KILN 241243 AAA
TAFLCK
TAF AMD
KLCK 241243Z 2413/2512 30005KT P6SM SCT006 BKN060
      TEMPO 2413/2414 VRB03KT BKN005
     FM241800 33011KT P6SM BKN035
     FM250200 01005KT P6SM FEW035=

USA.gov is the U.S. government's official web portal to all federal, state and local government web resources and services.